Logo AVAMET
Benvolgut visitant, si us plau, ingressa Recuperar contrasenya
AVAMET paisatges
Union Alcoyana

Teulada Sant Jaume

Dades diàries. Acumulats / Últims 30 dies disponibles

Data Temperatura (°C) Humitat rel. (%) Pressió rel. (hPa) Vent (km/h) Precipitació
Mínima Mitjana Màxima Amplitud
tèrmica
Mínima Mitjana Màxima Mínima Mitjana Màxima Predom. Mitjana Ràfega
màxima
Total
(mm)
Índex-n
Mínima Mitjana Màxima Mínima Mitjana Màxima n
0 a 1
P0 max
mm 5'
Dades mensuals acumulades fins l'últim dia disponible
10/2021 13,2 15,8 19,2 18,8 19,0 22,5 27,0 13,8 40 80 96 999 1.011 1.019   5,4 54,7 105,0
Dades anuals acumulades fins l'últim dia disponible
2021 1,2 15,0 24,7 18,1 6,6 21,8 35,4 34,2 25 77 98 993 1.008 1.028   8,4 64,4 454,4
Últims 30 dies disponibles
27-10-2021 13,4     16,7     20,9 7,5 66 83 93 1.012 1.013 1.015 SE 2,6 19,3 0,2
26-10-2021 14,2     15,9     19,0 4,8 80 90 95 1.012 1.013 1.015 NNW 6,4 32,2 38,8 0,66 4,00
25-10-2021 13,2     16,5     20,4 7,2 71 82 91 1.011 1.013 1.014 SSW 2,1 14,5 0,0
24-10-2021 13,6     16,6     20,4 6,8 67 80 89 1.013 1.014 1.015 SW 3,1 17,7 0,0
23-10-2021 13,6     15,4     19,0 5,4 71 89 96 1.010 1.012 1.015 NNE 7,1 30,6 24,8 0,31 2,10
22-10-2021 14,3     16,1     19,3 5,0 89 93 96 1.006 1.008 1.012 NNW 9,8 54,7 37,0 0,45 3,20
21-10-2021 16,3     20,8     27,0 10,7 48 73 89 1.006 1.008 1.010 ENE 5,5 24,1 0,4
20-10-2021 15,1     18,8     21,9 6,8 68 80 87 1.010 1.014 1.017 SW 6,0 25,7 0,0
19-10-2021 17,0     19,2     23,0 6,0 70 82 91 1.017 1.017 1.019 SSW 2,6 20,9 0,0
18-10-2021 15,7     18,9     22,7 7,0 72 80 87 1.012 1.014 1.017 SSE 1,9 19,3 0,0
17-10-2021 17,4     18,8     21,1 3,7 75 86 92 1.008 1.009 1.012 ENE 2,3 20,9 0,4
16-10-2021 15,9     19,5     23,4 7,5 63 79 88 1.007 1.008 1.009 SW 2,9 19,3 0,0
15-10-2021 15,4     19,1     22,2 6,8 69 78 88 1.007 1.010 1.013 SW 10,6 33,8 0,0
14-10-2021 14,9     18,7     22,9 8,0 62 80 88 1.012 1.013 1.014 SW 4,2 24,1 0,0
13-10-2021 14,6     18,5     22,6 8,0 67 75 83 1.007 1.009 1.012 SW 2,9 19,3 0,0
12-10-2021 15,2     18,6     22,7 7,5 62 77 90 1.007 1.009 1.012 SW 4,0 20,9 0,0
11-10-2021 16,2     18,8     23,2 7,0 67 82 91 1.011 1.012 1.013 ENE 6,8 30,6 0,0
10-10-2021 16,3     19,1     23,4 7,1 67 82 91 1.011 1.012 1.013 ENE 2,9 22,5 0,0
09-10-2021 17,2     19,1     22,2 5,0 74 84 91 1.010 1.010 1.012 SW 2,7 22,5 0,0
08-10-2021 16,2     19,6     24,1 7,9 65 80 90 1.009 1.010 1.011 ESE 2,4 19,3 0,0
07-10-2021 17,7     20,2     23,3 5,6 61 74 83 1.009 1.011 1.014 SW 3,2 19,3 0,0
06-10-2021 17,3     20,7     23,6 6,3 63 72 82 1.011 1.013 1.015 ENE 8,2 33,8 0,0
05-10-2021 15,4     20,0     24,5 9,1 40 59 82 1.009 1.010 1.012 SW 6,9 29,0 0,0
04-10-2021 14,6     17,9     21,8 7,2 40 66 91 1.003 1.008 1.011 NNW 8,9 43,5 2,4 0,20
03-10-2021 16,7     21,9     24,6 7,9 59 77 85 999 1.001 1.004 SW 15,1 41,8 1,0
02-10-2021 19,2     21,8     24,8 5,6 75 85 92 1.004 1.007 1.010 SW 7,9 38,6 0,0
01-10-2021 18,8     21,7     24,7 5,9 74 83 90 1.009 1.011 1.014 SW 6,1 32,2 0,0
30-09-2021 19,6     21,8     26,3 6,7 63 81 90 1.012 1.014 1.016 SSO 4,5 16,1 0,0
29-09-2021 18,7     21,9     25,6 6,9 64 77 90 1.011 1.013 1.016 NNE 6,8 29,0 0,0
28-09-2021 18,3     22,1     25,8 7,5 66 81 92 1.010 1.011 1.012 SW 4,7 20,9 0,0
Últims 13 mesos disponibles
09/2021 14,9 20,0 22,7 23,2 20,7 27,0 30,9 16,0 69 79 91 1.003 1.007 1.014 SW 8,3 46,7 18,8
08/2021 19,2 21,8 24,7 25,3 25,1 29,5 35,4 16,2 61 78 87 997 1.005 1.010 SW 7,6 48,3 13,4
07/2021 17,1 20,7 24,4 24,4 25,2 28,5 35,1 18,0 58 77 85 999 1.005 1.012 SW 7,8 56,3 0,8
06/2021 16,1 18,5 21,3 22,0 20,6 25,8 30,4 14,3 51 75 91 1.001 1.007 1.012 SW 7,9 48,3 7,4
05/2021 11,8 14,7 22,3 18,0 16,7 21,7 28,8 17,0 44 74 92 1.000 1.008 1.014 SW 9,2 43,5 53,6
04/2021 6,9 10,9 13,4 13,6 12,2 16,9 23,4 16,5 69 83 93 997 1.007 1.016 NNE 8,8 49,9 67,6
03/2021 4,9 9,2 11,8 12,0 10,0 15,3 20,8 15,9 58 81 95 1.005 1.013 1.021 NNE 10,9 64,4 92,4
02/2021 6,5 10,4 15,8 13,1 12,8 16,6 22,6 16,1 48 74 90 994 1.010 1.026 SW 8,6 62,8 0,4
01/2021 1,2 7,5 17,6 10,5 6,6 14,2 25,3 24,1 40 67 98 1.000 1.010 1.022 SO 9,2 62,9 95,0
12/2020 3,3 8,0 13,6 11,6 11,5 15,7 21,1 17,8 36 66 91 993 1.010 1.023 SSO 8,9 68,5 7,2
11/2020 7,5 11,6 16,7 14,8 12,5 18,8 23,3 15,8 77 88 98 1.001 1.018 1.025 SSO 5,9 37,0 78,0
10/2020 9,5 13,5 17,0 17,7 19,0 22,5 28,7 19,2 44 70 89 996 1.014 1.022 SSO 6,8 55,5 19,1
09/2020 14,1 18,0 22,5 22,0 22,5 26,7 30,6 16,5 40 73 90 1.008 1.015 1.021 SSO 6,2 44,4 3,0
Tots els anys disponibles
2020 3,3 13,6 24,1 17,4 9,9 21,8 34,4 31,1 35 77 98 993 1.015 1.029 SSO 7,1 86,6 532,8
2019 2,4 13,3 25,3 17,1 10,6 21,7 36,0 33,6 29 71 98 992 1.013 1.029 SO 9,1 84,9 776,3
2018 1,9 13,3 24,3 17,0 7,0 21,6 35,4 33,5 33 71 98 57 986 1.028 SSO 9,0 84,2 580,5
2017 -0,4 13,4 25,4 17,3 6,6 22,0 35,8 36,2 31 70 96 971 1.015 1.031 S 9,0 87,0 647,4
2016 2,8 13,6 25,8 17,8 11,2 22,0 38,4 35,6 24 68 98 981 1.017 1.035 57,0 401,7
Temperatura (°C)
Humitat relativa (%)
Velocitat del vent i ràfega màxima (km/h)
Direcció del vent (°)
Pressió (hPa)
Precipitació (mm)
Nota sobre les dades: s'avisa a l'usuari de la provisionalitat i no oficialitat d'aquestes dades
Logo AVAMET blanc
Web allotjada a Sollutia
Llicència de Creative CommonsLa web d'AVAMET i els seus continguts estan subjectes a una llicència de
Reconeixement - No Comercial - Compartir igual
Avís legal - Política de privacitat - Política de cookies
NOVES ESTACIONS: Cullera - Faro (Soci), Loriguilla - Pozalet (Soci), Polop (Ajuntament Soci), Viver - Cooperativa (Soci), Formentera del Segura (Soci), Benicàssim - Hotel Voramar (Soci), Algar de Palància (Ajuntament Soci) - - -